Thursday, June 21, 2018, 12:09 PM EDT
Back to Local

KHYA, Hyannis Barnstable Boardmn

Location: West Yarmouth, MA, United States Lat: 41.667
Local Time: 12:09 PM EDT (16:09 GMT) Lon: -70.267
Time Zone: US/Eastern Elev: 52 ft

Show me the last for .
Show Decoded

2018-06-21 10:56 METAR KHYA 211456Z 22008KT 10SM FEW100 21/17 A2978 RMK AO2 SLP086 T02110172
                 52003 =
2018-06-21 09:56 METAR KHYA 211356Z 21007KT 10SM CLR 20/16 A2978 RMK AO2 SLP084 T02000161 =
2018-06-21 08:56 METAR KHYA 211256Z 23006KT 10SM SCT041 19/16 A2978 RMK AO2 SLP085 T01940156 =
2018-06-21 07:56 METAR KHYA 211156Z 23010KT 10SM OVC039 19/18 A2977 RMK AO2 RAE38 SLP083 P0000
                 60000 T01940178 10200 20194 53011 =
2018-06-21 06:56 METAR KHYA 211056Z 24009KT 10SM -RA SCT055 BKN110 20/17 A2976 RMK AO2 RAB39
                 SLP077 P0000 T02000172 =
2018-06-21 05:56 METAR KHYA 210956Z 23006KT 10SM SCT060 20/18 A2975 RMK AO2 SLP076 T02000178 =
2018-06-21 04:56 METAR KHYA 210856Z AUTO 23006KT 10SM CLR 19/17 A2974 RMK AO2 SLP072 T01940172
                 55005 =
2018-06-21 03:56 METAR KHYA 210756Z AUTO 23009KT 10SM FEW110 19/17 A2974 RMK AO2 SLP070 T01940167
                 =
2018-06-21 02:56 METAR KHYA 210656Z AUTO 23009KT 10SM BKN120 20/17 A2974 RMK AO2 SLP073 T02000167
                 =
2018-06-21 01:56 METAR KHYA 210556Z AUTO 23009KT 10SM OVC120 20/17 A2976 RMK AO2 SLP077 T02000167
                 10206 20200 58009 =
2018-06-21 00:56 METAR KHYA 210456Z AUTO 23011KT 10SM CLR 20/17 A2977 RMK AO2 SLP081 T02000172
                 402440117 =
2018-06-20 23:56 METAR KHYA 210356Z AUTO 23013KT 10SM CLR 20/17 A2978 RMK AO2 SLP085 T02000172 =
2018-06-20 22:56 METAR KHYA 210256Z AUTO 22011KT 10SM CLR 20/17 A2978 RMK AO2 SLP086 T02000172
                 50001 =
2018-06-20 21:56 METAR KHYA 210156Z 22011KT 10SM CLR 20/17 A2979 RMK AO2 SLP089 T02000172 =
2018-06-20 20:56 METAR KHYA 210056Z 22012KT 10SM CLR 20/17 A2979 RMK AO2 SLP087 T02000172 =
2018-06-20 19:56 METAR KHYA 202356Z 22010KT 10SM CLR 21/18 A2978 RMK AO2 SLP085 T02060178 10244
                 20206 56009 =
2018-06-20 18:56 METAR KHYA 202256Z 21010KT 10SM CLR 21/18 A2979 RMK AO2 SLP087 T02060178 =
2018-06-20 17:56 METAR KHYA 202156Z 20012G18KT 10SM CLR 21/18 A2980 RMK AO2 SLP090 T02110178 =
2018-06-20 16:56 METAR KHYA 202056Z 21014G19KT 10SM CLR 23/17 A2981 RMK AO2 SLP094 T02330172
                 56009 =
2018-06-20 15:56 METAR KHYA 201956Z 21018KT 10SM CLR 24/14 A2981 RMK AO2 SLP096 T02390144 =
2018-06-20 14:56 METAR KHYA 201856Z 22014G24KT 10SM CLR 24/16 A2982 RMK AO2 SLP100 T02390161 =
2018-06-20 13:56 METAR KHYA 201756Z 20012G19KT 10SM CLR 23/16 A2983 RMK AO2 SLP103 T02330161
                 10244 20206 58016 =
2018-06-20 12:56 METAR KHYA 201656Z 20014KT 10SM CLR 24/15 A2985 RMK AO2 SLP108 T02390150 =

Support USWX by starting your Amazon purchase here.